AAL25 PHOG-PHLI
Flight info
| Callsign | AAL25 |
|---|---|
| Flight time | N/A |
| Altitude | 26000 |
| Route | MAUI5 OGG LNY V16 NAPUA LIH |
| Aircraft | B738/M-SDE2E3FGHIRWXY/LB1 |
Departure
| Time | 2026-04-19 01:28 |
|---|---|
| Airport | Kahului International Airport (PHOG) |
Arrival
| Time | N/A |
|---|---|
| Airport | Lihue Airport (PHLI) |
| Time | Latitude | Longitude | Altitude | Speed | Heading |
|---|---|---|---|---|---|
| 2026-04-19 01:14 | 20.89254 | -156.43694 | 41 ft | 0 kts | 305° |
| 2026-04-19 01:21 | 20.89242 | -156.43676 | 41 ft | 4 kts | 305° |
| 2026-04-19 01:22 | 20.89227 | -156.43652 | 43 ft | 4 kts | 302° |
| 2026-04-19 01:22 | 20.89214 | -156.43627 | 41 ft | 4 kts | 293° |
| 2026-04-19 01:22 | 20.89205 | -156.43600 | 43 ft | 4 kts | 275° |
| 2026-04-19 01:22 | 20.89208 | -156.43576 | 42 ft | 4 kts | 225° |
| 2026-04-19 01:23 | 20.89216 | -156.43569 | 43 ft | 0 kts | 214° |
| 2026-04-19 01:25 | 20.89206 | -156.43576 | 41 ft | 6 kts | 214° |
| 2026-04-19 01:25 | 20.89145 | -156.43622 | 42 ft | 15 kts | 215° |
| 2026-04-19 01:26 | 20.89056 | -156.43689 | 43 ft | 0 kts | 215° |
| 2026-04-19 01:26 | 20.89033 | -156.43704 | 41 ft | 7 kts | 206° |
| 2026-04-19 01:26 | 20.88984 | -156.43699 | 44 ft | 7 kts | 147° |
| 2026-04-19 01:26 | 20.88952 | -156.43658 | 43 ft | 7 kts | 123° |
| 2026-04-19 01:27 | 20.88959 | -156.43604 | 42 ft | 9 kts | 47° |
| 2026-04-19 01:27 | 20.89014 | -156.43562 | 44 ft | 19 kts | 34° |
| 2026-04-19 01:27 | 20.89411 | -156.43265 | 46 ft | 118 kts | 35° |
| 2026-04-19 01:27 | 20.90273 | -156.42619 | 382 ft | 174 kts | 34° |
| 2026-04-19 01:28 | 20.91314 | -156.41857 | 1567 ft | 186 kts | 26° |
| 2026-04-19 01:28 | 20.92559 | -156.41411 | 2738 ft | 197 kts | 4° |
| 2026-04-19 01:28 | 20.94015 | -156.41559 | 3446 ft | 228 kts | 341° |
| 2026-04-19 01:28 | 20.95565 | -156.42337 | 3828 ft | 268 kts | 327° |
| 2026-04-19 01:29 | 20.96956 | -156.43802 | 4464 ft | 289 kts | 298° |
| 2026-04-19 01:29 | 20.97378 | -156.45859 | 5655 ft | 284 kts | 265° |
| 2026-04-19 01:29 | 20.96861 | -156.47884 | 6730 ft | 285 kts | 248° |
| 2026-04-19 01:29 | 20.96082 | -156.49824 | 7750 ft | 284 kts | 246° |
| 2026-04-19 01:30 | 20.95537 | -156.51110 | 8326 ft | 287 kts | 245° |
| 2026-04-19 01:30 | 20.94708 | -156.53045 | 9335 ft | 288 kts | 245° |
| 2026-04-19 01:30 | 20.93851 | -156.55001 | 10267 ft | 291 kts | 245° |
| 2026-04-19 01:30 | 20.92967 | -156.57012 | 10778 ft | 311 kts | 245° |
| 2026-04-19 01:31 | 20.92019 | -156.59208 | 11035 ft | 336 kts | 246° |
| 2026-04-19 01:31 | 20.91041 | -156.61511 | 11735 ft | 343 kts | 246° |
| 2026-04-19 01:31 | 20.90067 | -156.63840 | 12698 ft | 342 kts | 247° |
| 2026-04-19 01:31 | 20.89101 | -156.66172 | 13556 ft | 346 kts | 247° |
| 2026-04-19 01:32 | 20.88126 | -156.68541 | 14305 ft | 351 kts | 247° |
| 2026-04-19 01:32 | 20.87140 | -156.70946 | 15016 ft | 355 kts | 247° |
| 2026-04-19 01:32 | 20.86147 | -156.73373 | 15760 ft | 358 kts | 247° |
| 2026-04-19 01:32 | 20.85144 | -156.75823 | 16459 ft | 363 kts | 247° |
| 2026-04-19 01:33 | 20.84127 | -156.78308 | 17231 ft | 365 kts | 247° |
| 2026-04-19 01:33 | 20.83104 | -156.80804 | 17944 ft | 369 kts | 247° |
| 2026-04-19 01:33 | 20.82066 | -156.83338 | 18565 ft | 374 kts | 247° |
| 2026-04-19 01:33 | 20.81020 | -156.85888 | 19275 ft | 374 kts | 246° |
| 2026-04-19 01:34 | 20.79978 | -156.88431 | 20010 ft | 374 kts | 246° |
| 2026-04-19 01:34 | 20.78950 | -156.90933 | 20842 ft | 370 kts | 246° |
| 2026-04-19 01:34 | 20.77918 | -156.93455 | 21854 ft | 362 kts | 248° |
| 2026-04-19 01:34 | 20.77286 | -156.95995 | 22815 ft | 357 kts | 262° |
| 2026-04-19 01:35 | 20.77265 | -156.98637 | 23714 ft | 356 kts | 273° |
| 2026-04-19 01:35 | 20.77801 | -157.01228 | 24394 ft | 358 kts | 285° |
| 2026-04-19 01:35 | 20.78621 | -157.03718 | 25142 ft | 354 kts | 287° |
| 2026-04-19 01:35 | 20.79457 | -157.06188 | 25733 ft | 353 kts | 287° |
| 2026-04-19 01:36 | 20.80274 | -157.08649 | 26052 ft | 350 kts | 286° |
| 2026-04-19 01:36 | 20.81070 | -157.11104 | 26084 ft | 348 kts | 286° |
| 2026-04-19 01:36 | 20.81855 | -157.13547 | 26104 ft | 348 kts | 286° |
| 2026-04-19 01:36 | 20.82644 | -157.15996 | 26099 ft | 349 kts | 286° |
| 2026-04-19 01:37 | 20.83429 | -157.18419 | 26106 ft | 350 kts | 286° |
| 2026-04-19 01:37 | 20.84227 | -157.20878 | 26100 ft | 351 kts | 286° |
| 2026-04-19 01:37 | 20.85027 | -157.23344 | 26109 ft | 351 kts | 286° |
| 2026-04-19 01:37 | 20.85825 | -157.25808 | 26096 ft | 351 kts | 286° |
| 2026-04-19 01:38 | 20.86622 | -157.28272 | 26091 ft | 350 kts | 286° |
| 2026-04-19 01:38 | 20.87413 | -157.30731 | 26085 ft | 350 kts | 286° |
| 2026-04-19 01:38 | 20.88201 | -157.33186 | 26073 ft | 349 kts | 286° |
| 2026-04-19 01:38 | 20.88987 | -157.35637 | 26065 ft | 348 kts | 286° |
| 2026-04-19 01:39 | 20.89770 | -157.38081 | 26065 ft | 347 kts | 286° |
| 2026-04-19 01:39 | 20.90552 | -157.40522 | 26072 ft | 346 kts | 286° |
| 2026-04-19 01:39 | 20.91332 | -157.42959 | 26058 ft | 346 kts | 286° |
| 2026-04-19 01:39 | 20.92110 | -157.45389 | 26065 ft | 345 kts | 286° |
| 2026-04-19 01:40 | 20.92888 | -157.47821 | 26058 ft | 345 kts | 286° |
| 2026-04-19 01:40 | 20.93664 | -157.50249 | 26068 ft | 345 kts | 286° |
| 2026-04-19 01:40 | 20.94438 | -157.52681 | 26064 ft | 345 kts | 286° |
| 2026-04-19 01:40 | 20.95210 | -157.55111 | 26061 ft | 345 kts | 286° |
| 2026-04-19 01:41 | 20.95985 | -157.57549 | 26058 ft | 346 kts | 286° |
| 2026-04-19 01:41 | 20.96749 | -157.59951 | 26057 ft | 346 kts | 286° |
| 2026-04-19 01:41 | 20.97525 | -157.62392 | 26061 ft | 346 kts | 286° |
| 2026-04-19 01:41 | 20.98301 | -157.64835 | 26045 ft | 347 kts | 286° |
| 2026-04-19 01:42 | 20.99076 | -157.67275 | 26060 ft | 347 kts | 286° |
| 2026-04-19 01:42 | 20.99853 | -157.69724 | 26051 ft | 347 kts | 286° |
| 2026-04-19 01:42 | 21.01406 | -157.74620 | 26049 ft | 347 kts | 286° |
| 2026-04-19 01:43 | 21.02180 | -157.77066 | 26048 ft | 347 kts | 286° |